sensor_id;sensor_type;location;lat;lon;timestamp;P1;durP1;ratioP1;P2;durP2;ratioP2
46777;SDS011;32536;47.128;8.746;2022-07-12T00:00:08;2.42;;;1.15;;
46777;SDS011;32536;47.128;8.746;2022-07-12T00:02:35;1.65;;;0.93;;
46777;SDS011;32536;47.128;8.746;2022-07-12T00:05:02;1.67;;;0.85;;
46777;SDS011;32536;47.128;8.746;2022-07-12T00:07:29;2.10;;;0.93;;
46777;SDS011;32536;47.128;8.746;2022-07-12T00:09:56;1.40;;;0.80;;
46777;SDS011;32536;47.128;8.746;2022-07-12T00:12:23;1.95;;;1.02;;
46777;SDS011;32536;47.128;8.746;2022-07-12T00:14:50;1.77;;;0.88;;
46777;SDS011;32536;47.128;8.746;2022-07-12T00:17:17;2.15;;;0.85;;
46777;SDS011;32536;47.128;8.746;2022-07-12T00:19:43;1.20;;;0.63;;
46777;SDS011;32536;47.128;8.746;2022-07-12T00:22:11;1.75;;;0.85;;
46777;SDS011;32536;47.128;8.746;2022-07-12T00:24:38;2.17;;;0.90;;
46777;SDS011;32536;47.128;8.746;2022-07-12T00:27:06;1.42;;;0.73;;
46777;SDS011;32536;47.128;8.746;2022-07-12T00:29:40;1.83;;;0.90;;
46777;SDS011;32536;47.128;8.746;2022-07-12T00:32:06;3.08;;;1.15;;
46777;SDS011;32536;47.128;8.746;2022-07-12T00:34:34;5.60;;;2.22;;
46777;SDS011;32536;47.128;8.746;2022-07-12T00:37:00;5.53;;;2.40;;
46777;SDS011;32536;47.128;8.746;2022-07-12T00:39:27;6.28;;;2.15;;
46777;SDS011;32536;47.128;8.746;2022-07-12T00:41:54;4.32;;;1.85;;
46777;SDS011;32536;47.128;8.746;2022-07-12T00:44:21;2.78;;;1.00;;
46777;SDS011;32536;47.128;8.746;2022-07-12T00:46:48;2.75;;;1.17;;
46777;SDS011;32536;47.128;8.746;2022-07-12T00:49:14;1.63;;;1.05;;
46777;SDS011;32536;47.128;8.746;2022-07-12T00:51:44;1.98;;;0.93;;
46777;SDS011;32536;47.128;8.746;2022-07-12T00:54:11;2.78;;;1.00;;
46777;SDS011;32536;47.128;8.746;2022-07-12T00:56:42;4.63;;;1.65;;
46777;SDS011;32536;47.128;8.746;2022-07-12T00:59:09;4.60;;;2.35;;
46777;SDS011;32536;47.128;8.746;2022-07-12T01:01:36;4.10;;;1.70;;
46777;SDS011;32536;47.128;8.746;2022-07-12T01:04:04;3.75;;;1.58;;
46777;SDS011;32536;47.128;8.746;2022-07-12T01:06:31;3.03;;;1.35;;
46777;SDS011;32536;47.128;8.746;2022-07-12T01:08:59;3.47;;;1.45;;
46777;SDS011;32536;47.128;8.746;2022-07-12T01:11:26;2.20;;;0.95;;
46777;SDS011;32536;47.128;8.746;2022-07-12T01:13:52;2.33;;;0.77;;
46777;SDS011;32536;47.128;8.746;2022-07-12T01:16:21;1.60;;;0.75;;
46777;SDS011;32536;47.128;8.746;2022-07-12T01:18:49;2.05;;;0.95;;
46777;SDS011;32536;47.128;8.746;2022-07-12T01:21:18;3.17;;;0.70;;
46777;SDS011;32536;47.128;8.746;2022-07-12T01:23:46;2.85;;;1.00;;
46777;SDS011;32536;47.128;8.746;2022-07-12T01:26:13;3.75;;;1.05;;
46777;SDS011;32536;47.128;8.746;2022-07-12T01:28:40;1.60;;;0.93;;
46777;SDS011;32536;47.128;8.746;2022-07-12T01:31:07;3.03;;;1.10;;
46777;SDS011;32536;47.128;8.746;2022-07-12T01:33:34;4.93;;;2.00;;
46777;SDS011;32536;47.128;8.746;2022-07-12T01:36:00;5.65;;;1.73;;
46777;SDS011;32536;47.128;8.746;2022-07-12T01:38:27;4.45;;;1.85;;
46777;SDS011;32536;47.128;8.746;2022-07-12T01:40:54;4.57;;;1.95;;
46777;SDS011;32536;47.128;8.746;2022-07-12T01:43:21;6.03;;;2.45;;
46777;SDS011;32536;47.128;8.746;2022-07-12T01:45:48;5.53;;;2.20;;
46777;SDS011;32536;47.128;8.746;2022-07-12T01:48:15;3.80;;;1.30;;
46777;SDS011;32536;47.128;8.746;2022-07-12T01:50:42;3.42;;;1.27;;
46777;SDS011;32536;47.128;8.746;2022-07-12T01:53:09;3.25;;;1.45;;
46777;SDS011;32536;47.128;8.746;2022-07-12T01:55:37;2.28;;;0.75;;
46777;SDS011;32536;47.128;8.746;2022-07-12T01:58:04;1.75;;;0.88;;
46777;SDS011;32536;47.128;8.746;2022-07-12T02:00:32;2.53;;;0.85;;
46777;SDS011;32536;47.128;8.746;2022-07-12T02:02:58;4.20;;;1.50;;
46777;SDS011;32536;47.128;8.746;2022-07-12T02:05:25;3.97;;;1.80;;
46777;SDS011;32536;47.128;8.746;2022-07-12T02:07:52;3.10;;;1.00;;
46777;SDS011;32536;47.128;8.746;2022-07-12T02:10:20;2.65;;;1.00;;
46777;SDS011;32536;47.128;8.746;2022-07-12T02:12:46;2.70;;;0.82;;
46777;SDS011;32536;47.128;8.746;2022-07-12T02:15:13;2.45;;;1.15;;
46777;SDS011;32536;47.128;8.746;2022-07-12T02:17:40;2.05;;;0.88;;
46777;SDS011;32536;47.128;8.746;2022-07-12T02:20:08;1.65;;;0.90;;
46777;SDS011;32536;47.128;8.746;2022-07-12T02:22:38;1.55;;;0.90;;
46777;SDS011;32536;47.128;8.746;2022-07-12T02:25:05;1.77;;;0.77;;
46777;SDS011;32536;47.128;8.746;2022-07-12T02:27:32;3.45;;;0.98;;
46777;SDS011;32536;47.128;8.746;2022-07-12T02:29:59;2.85;;;1.08;;
46777;SDS011;32536;47.128;8.746;2022-07-12T02:32:26;2.63;;;1.00;;
46777;SDS011;32536;47.128;8.746;2022-07-12T02:34:54;1.50;;;0.73;;
46777;SDS011;32536;47.128;8.746;2022-07-12T02:37:20;2.13;;;0.95;;
46777;SDS011;32536;47.128;8.746;2022-07-12T02:39:47;2.13;;;1.25;;
46777;SDS011;32536;47.128;8.746;2022-07-12T02:42:14;1.50;;;0.73;;
46777;SDS011;32536;47.128;8.746;2022-07-12T02:44:40;2.20;;;0.98;;
46777;SDS011;32536;47.128;8.746;2022-07-12T02:47:07;2.33;;;0.77;;
46777;SDS011;32536;47.128;8.746;2022-07-12T02:49:34;1.80;;;0.77;;
46777;SDS011;32536;47.128;8.746;2022-07-12T02:52:01;1.60;;;0.82;;
46777;SDS011;32536;47.128;8.746;2022-07-12T02:54:28;2.78;;;1.10;;
46777;SDS011;32536;47.128;8.746;2022-07-12T02:56:55;1.33;;;0.63;;
46777;SDS011;32536;47.128;8.746;2022-07-12T02:59:22;1.27;;;0.60;;
46777;SDS011;32536;47.128;8.746;2022-07-12T03:01:50;1.75;;;0.80;;
46777;SDS011;32536;47.128;8.746;2022-07-12T03:04:16;1.75;;;0.65;;
46777;SDS011;32536;47.128;8.746;2022-07-12T03:06:43;2.10;;;0.90;;
46777;SDS011;32536;47.128;8.746;2022-07-12T03:09:10;1.98;;;0.70;;
46777;SDS011;32536;47.128;8.746;2022-07-12T03:11:36;2.78;;;0.93;;
46777;SDS011;32536;47.128;8.746;2022-07-12T03:14:03;1.60;;;0.93;;
46777;SDS011;32536;47.128;8.746;2022-07-12T03:16:30;3.15;;;1.35;;
46777;SDS011;32536;47.128;8.746;2022-07-12T03:18:57;3.80;;;1.55;;
46777;SDS011;32536;47.128;8.746;2022-07-12T03:21:23;2.95;;;1.02;;
46777;SDS011;32536;47.128;8.746;2022-07-12T03:23:50;2.30;;;0.98;;
46777;SDS011;32536;47.128;8.746;2022-07-12T03:26:17;3.67;;;1.65;;
46777;SDS011;32536;47.128;8.746;2022-07-12T03:28:44;3.15;;;1.40;;
46777;SDS011;32536;47.128;8.746;2022-07-12T03:31:10;2.92;;;1.33;;
46777;SDS011;32536;47.128;8.746;2022-07-12T03:33:37;2.40;;;1.02;;
46777;SDS011;32536;47.128;8.746;2022-07-12T03:36:04;2.63;;;1.17;;
46777;SDS011;32536;47.128;8.746;2022-07-12T03:38:34;2.05;;;1.10;;
46777;SDS011;32536;47.128;8.746;2022-07-12T03:41:02;1.58;;;0.85;;
46777;SDS011;32536;47.128;8.746;2022-07-12T03:43:29;1.55;;;0.80;;
46777;SDS011;32536;47.128;8.746;2022-07-12T03:45:56;1.30;;;0.93;;
46777;SDS011;32536;47.128;8.746;2022-07-12T03:48:22;1.27;;;0.60;;
46777;SDS011;32536;47.128;8.746;2022-07-12T03:50:49;1.25;;;0.80;;
46777;SDS011;32536;47.128;8.746;2022-07-12T03:53:16;1.50;;;0.80;;
46777;SDS011;32536;47.128;8.746;2022-07-12T03:55:43;2.33;;;0.70;;
46777;SDS011;32536;47.128;8.746;2022-07-12T03:58:10;1.40;;;0.70;;
46777;SDS011;32536;47.128;8.746;2022-07-12T04:00:37;1.55;;;0.85;;
46777;SDS011;32536;47.128;8.746;2022-07-12T04:03:05;2.20;;;0.82;;
46777;SDS011;32536;47.128;8.746;2022-07-12T04:05:32;1.77;;;0.90;;
46777;SDS011;32536;47.128;8.746;2022-07-12T04:07:59;1.80;;;1.30;;
46777;SDS011;32536;47.128;8.746;2022-07-12T04:10:27;2.72;;;1.42;;
46777;SDS011;32536;47.128;8.746;2022-07-12T04:12:54;1.60;;;0.82;;
46777;SDS011;32536;47.128;8.746;2022-07-12T04:15:21;1.67;;;1.00;;
46777;SDS011;32536;47.128;8.746;2022-07-12T04:17:48;1.60;;;0.70;;
46777;SDS011;32536;47.128;8.746;2022-07-12T04:20:15;2.17;;;1.08;;
46777;SDS011;32536;47.128;8.746;2022-07-12T04:22:41;1.30;;;0.70;;
46777;SDS011;32536;47.128;8.746;2022-07-12T04:25:08;2.28;;;1.02;;
46777;SDS011;32536;47.128;8.746;2022-07-12T04:27:36;2.08;;;1.02;;
46777;SDS011;32536;47.128;8.746;2022-07-12T04:30:03;2.28;;;1.15;;
46777;SDS011;32536;47.128;8.746;2022-07-12T04:32:31;2.08;;;0.90;;
46777;SDS011;32536;47.128;8.746;2022-07-12T04:34:58;1.35;;;0.65;;
46777;SDS011;32536;47.128;8.746;2022-07-12T04:37:25;1.52;;;0.93;;
46777;SDS011;32536;47.128;8.746;2022-07-12T04:39:51;2.17;;;0.95;;
46777;SDS011;32536;47.128;8.746;2022-07-12T04:42:18;2.03;;;0.80;;
46777;SDS011;32536;47.128;8.746;2022-07-12T04:44:45;1.52;;;0.60;;
46777;SDS011;32536;47.128;8.746;2022-07-12T04:47:12;2.05;;;0.75;;
46777;SDS011;32536;47.128;8.746;2022-07-12T04:49:39;1.42;;;0.75;;
46777;SDS011;32536;47.128;8.746;2022-07-12T04:52:06;2.42;;;0.80;;
46777;SDS011;32536;47.128;8.746;2022-07-12T04:54:33;1.75;;;1.00;;
46777;SDS011;32536;47.128;8.746;2022-07-12T04:56:59;1.38;;;0.70;;
46777;SDS011;32536;47.128;8.746;2022-07-12T04:59:26;1.70;;;0.80;;
46777;SDS011;32536;47.128;8.746;2022-07-12T05:01:53;1.10;;;0.60;;
46777;SDS011;32536;47.128;8.746;2022-07-12T05:04:20;1.95;;;0.90;;
46777;SDS011;32536;47.128;8.746;2022-07-12T05:06:46;1.30;;;0.80;;
46777;SDS011;32536;47.128;8.746;2022-07-12T05:09:14;1.63;;;0.63;;
46777;SDS011;32536;47.128;8.746;2022-07-12T05:11:40;1.83;;;0.90;;
46777;SDS011;32536;47.128;8.746;2022-07-12T05:14:07;2.33;;;1.25;;
46777;SDS011;32536;47.128;8.746;2022-07-12T05:16:34;2.40;;;1.10;;
46777;SDS011;32536;47.128;8.746;2022-07-12T05:19:01;1.95;;;0.88;;
46777;SDS011;32536;47.128;8.746;2022-07-12T05:21:28;2.47;;;1.20;;
46777;SDS011;32536;47.128;8.746;2022-07-12T05:23:54;2.20;;;1.02;;
46777;SDS011;32536;47.128;8.746;2022-07-12T05:26:21;2.67;;;1.08;;
46777;SDS011;32536;47.128;8.746;2022-07-12T05:28:48;2.10;;;0.90;;
46777;SDS011;32536;47.128;8.746;2022-07-12T05:31:15;2.22;;;0.90;;
46777;SDS011;32536;47.128;8.746;2022-07-12T05:33:42;2.72;;;1.33;;
46777;SDS011;32536;47.128;8.746;2022-07-12T05:36:08;4.53;;;2.13;;
46777;SDS011;32536;47.128;8.746;2022-07-12T05:38:35;4.40;;;1.80;;
46777;SDS011;32536;47.128;8.746;2022-07-12T05:41:02;3.67;;;1.85;;
46777;SDS011;32536;47.128;8.746;2022-07-12T05:43:29;2.40;;;1.05;;
46777;SDS011;32536;47.128;8.746;2022-07-12T05:45:55;2.78;;;1.52;;
46777;SDS011;32536;47.128;8.746;2022-07-12T05:48:22;4.50;;;1.65;;
46777;SDS011;32536;47.128;8.746;2022-07-12T05:50:49;5.50;;;2.40;;
46777;SDS011;32536;47.128;8.746;2022-07-12T05:53:16;4.18;;;1.75;;
46777;SDS011;32536;47.128;8.746;2022-07-12T05:55:49;5.72;;;1.85;;
46777;SDS011;32536;47.128;8.746;2022-07-12T05:58:18;3.25;;;1.42;;
46777;SDS011;32536;47.128;8.746;2022-07-12T06:00:46;4.07;;;1.90;;
46777;SDS011;32536;47.128;8.746;2022-07-12T06:03:14;3.03;;;1.58;;
46777;SDS011;32536;47.128;8.746;2022-07-12T06:05:41;3.40;;;1.90;;
46777;SDS011;32536;47.128;8.746;2022-07-12T06:08:08;2.75;;;1.23;;
46777;SDS011;32536;47.128;8.746;2022-07-12T06:10:35;1.75;;;0.85;;
46777;SDS011;32536;47.128;8.746;2022-07-12T06:13:02;1.85;;;0.90;;
46777;SDS011;32536;47.128;8.746;2022-07-12T06:15:29;2.22;;;1.00;;
46777;SDS011;32536;47.128;8.746;2022-07-12T06:17:56;2.28;;;0.90;;
46777;SDS011;32536;47.128;8.746;2022-07-12T06:20:23;1.30;;;0.55;;
46777;SDS011;32536;47.128;8.746;2022-07-12T06:22:51;1.35;;;0.70;;
46777;SDS011;32536;47.128;8.746;2022-07-12T06:25:18;1.45;;;0.70;;
46777;SDS011;32536;47.128;8.746;2022-07-12T06:27:45;1.17;;;0.70;;
46777;SDS011;32536;47.128;8.746;2022-07-12T06:30:19;1.50;;;0.60;;
46777;SDS011;32536;47.128;8.746;2022-07-12T06:32:48;2.13;;;0.85;;
46777;SDS011;32536;47.128;8.746;2022-07-12T06:35:15;1.50;;;0.80;;
46777;SDS011;32536;47.128;8.746;2022-07-12T06:37:41;1.63;;;0.90;;
46777;SDS011;32536;47.128;8.746;2022-07-12T06:40:09;2.05;;;0.93;;
46777;SDS011;32536;47.128;8.746;2022-07-12T06:42:36;1.30;;;0.55;;
46777;SDS011;32536;47.128;8.746;2022-07-12T06:45:03;1.55;;;0.77;;
46777;SDS011;32536;47.128;8.746;2022-07-12T06:47:31;1.05;;;0.50;;
46777;SDS011;32536;47.128;8.746;2022-07-12T06:49:58;1.10;;;0.60;;
46777;SDS011;32536;47.128;8.746;2022-07-12T06:52:25;1.17;;;0.65;;
46777;SDS011;32536;47.128;8.746;2022-07-12T06:54:52;1.80;;;0.68;;
46777;SDS011;32536;47.128;8.746;2022-07-12T06:57:37;1.35;;;0.60;;
46777;SDS011;32536;47.128;8.746;2022-07-12T07:00:04;1.30;;;0.70;;
46777;SDS011;32536;47.128;8.746;2022-07-12T07:02:32;0.95;;;0.57;;
46777;SDS011;32536;47.128;8.746;2022-07-12T07:04:59;1.45;;;0.70;;
46777;SDS011;32536;47.128;8.746;2022-07-12T07:07:25;1.52;;;0.82;;
46777;SDS011;32536;47.128;8.746;2022-07-12T07:09:52;1.30;;;0.65;;
46777;SDS011;32536;47.128;8.746;2022-07-12T07:12:19;1.52;;;0.55;;
46777;SDS011;32536;47.128;8.746;2022-07-12T07:14:47;0.98;;;0.52;;
46777;SDS011;32536;47.128;8.746;2022-07-12T07:17:15;1.17;;;0.50;;
46777;SDS011;32536;47.128;8.746;2022-07-12T07:19:43;1.42;;;0.57;;
46777;SDS011;32536;47.128;8.746;2022-07-12T07:22:11;1.60;;;1.05;;
46777;SDS011;32536;47.128;8.746;2022-07-12T07:24:39;1.52;;;0.80;;
46777;SDS011;32536;47.128;8.746;2022-07-12T07:27:06;1.80;;;0.68;;
46777;SDS011;32536;47.128;8.746;2022-07-12T07:35:39;1.45;;;0.60;;
46777;SDS011;32536;47.128;8.746;2022-07-12T07:38:05;1.33;;;0.77;;
46777;SDS011;32536;47.128;8.746;2022-07-12T07:40:32;1.30;;;0.65;;
46777;SDS011;32536;47.128;8.746;2022-07-12T07:42:59;1.00;;;0.40;;
46777;SDS011;32536;47.128;8.746;2022-07-12T07:45:26;1.15;;;0.70;;
46777;SDS011;32536;47.128;8.746;2022-07-12T07:47:53;1.95;;;0.88;;
46777;SDS011;32536;47.128;8.746;2022-07-12T07:50:19;1.30;;;0.60;;
46777;SDS011;32536;47.128;8.746;2022-07-12T07:52:46;2.17;;;0.70;;
46777;SDS011;32536;47.128;8.746;2022-07-12T07:55:15;1.38;;;0.60;;
46777;SDS011;32536;47.128;8.746;2022-07-12T07:57:42;1.98;;;0.60;;
46777;SDS011;32536;47.128;8.746;2022-07-12T08:00:10;1.25;;;0.63;;
46777;SDS011;32536;47.128;8.746;2022-07-12T08:02:37;1.45;;;0.85;;
46777;SDS011;32536;47.128;8.746;2022-07-12T08:05:05;1.38;;;0.75;;
46777;SDS011;32536;47.128;8.746;2022-07-12T08:07:32;1.23;;;0.60;;
46777;SDS011;32536;47.128;8.746;2022-07-12T08:09:59;1.10;;;0.47;;
46777;SDS011;32536;47.128;8.746;2022-07-12T08:12:26;2.20;;;0.95;;
46777;SDS011;32536;47.128;8.746;2022-07-12T08:14:52;1.02;;;0.60;;
46777;SDS011;32536;47.128;8.746;2022-07-12T08:17:19;1.15;;;0.47;;
46777;SDS011;32536;47.128;8.746;2022-07-12T08:19:46;1.33;;;0.70;;
46777;SDS011;32536;47.128;8.746;2022-07-12T08:22:12;1.90;;;0.77;;
46777;SDS011;32536;47.128;8.746;2022-07-12T08:24:39;1.83;;;0.95;;
46777;SDS011;32536;47.128;8.746;2022-07-12T08:27:06;1.17;;;0.60;;
46777;SDS011;32536;47.128;8.746;2022-07-12T08:29:33;0.90;;;0.50;;
46777;SDS011;32536;47.128;8.746;2022-07-12T08:32:00;1.10;;;0.40;;
46777;SDS011;32536;47.128;8.746;2022-07-12T08:34:28;1.70;;;0.75;;
46777;SDS011;32536;47.128;8.746;2022-07-12T08:36:55;1.50;;;0.65;;
46777;SDS011;32536;47.128;8.746;2022-07-12T08:39:22;1.60;;;0.60;;
46777;SDS011;32536;47.128;8.746;2022-07-12T08:41:48;1.17;;;0.52;;
46777;SDS011;32536;47.128;8.746;2022-07-12T08:44:15;1.98;;;0.70;;
46777;SDS011;32536;47.128;8.746;2022-07-12T08:46:42;1.55;;;0.90;;
46777;SDS011;32536;47.128;8.746;2022-07-12T08:49:08;1.10;;;0.60;;
46777;SDS011;32536;47.128;8.746;2022-07-12T08:51:35;1.20;;;0.60;;
46777;SDS011;32536;47.128;8.746;2022-07-12T08:54:06;1.42;;;0.68;;
46777;SDS011;32536;47.128;8.746;2022-07-12T08:56:42;1.77;;;0.60;;
46777;SDS011;32536;47.128;8.746;2022-07-12T08:59:17;1.90;;;0.80;;
46777;SDS011;32536;47.128;8.746;2022-07-12T09:04:19;1.60;;;0.80;;
46777;SDS011;32536;47.128;8.746;2022-07-12T09:06:47;2.28;;;1.17;;
46777;SDS011;32536;47.128;8.746;2022-07-12T09:09:30;1.77;;;0.90;;
46777;SDS011;32536;47.128;8.746;2022-07-12T09:11:59;1.52;;;0.70;;
46777;SDS011;32536;47.128;8.746;2022-07-12T09:14:26;2.25;;;0.60;;
46777;SDS011;32536;47.128;8.746;2022-07-12T09:17:01;1.23;;;0.60;;
46777;SDS011;32536;47.128;8.746;2022-07-12T09:19:40;1.48;;;0.65;;
46777;SDS011;32536;47.128;8.746;2022-07-12T09:22:23;2.00;;;1.13;;
46777;SDS011;32536;47.128;8.746;2022-07-12T09:24:50;1.25;;;0.55;;
46777;SDS011;32536;47.128;8.746;2022-07-12T09:27:23;1.92;;;0.50;;
46777;SDS011;32536;47.128;8.746;2022-07-12T09:32:49;1.35;;;0.57;;
46777;SDS011;32536;47.128;8.746;2022-07-12T09:35:36;1.05;;;0.50;;
46777;SDS011;32536;47.128;8.746;2022-07-12T09:38:22;1.00;;;0.50;;
46777;SDS011;32536;47.128;8.746;2022-07-12T09:40:51;1.50;;;0.60;;
46777;SDS011;32536;47.128;8.746;2022-07-12T09:43:19;1.25;;;0.70;;
46777;SDS011;32536;47.128;8.746;2022-07-12T09:45:48;1.90;;;0.65;;
46777;SDS011;32536;47.128;8.746;2022-07-12T09:48:15;1.50;;;0.80;;
46777;SDS011;32536;47.128;8.746;2022-07-12T09:50:46;1.33;;;0.68;;
46777;SDS011;32536;47.128;8.746;2022-07-12T09:56:04;3.00;;;0.50;;
46777;SDS011;32536;47.128;8.746;2022-07-12T09:58:51;1.20;;;0.60;;
46777;SDS011;32536;47.128;8.746;2022-07-12T10:01:25;1.63;;;0.75;;
46777;SDS011;32536;47.128;8.746;2022-07-12T10:03:52;1.67;;;0.70;;
46777;SDS011;32536;47.128;8.746;2022-07-12T10:08:52;2.13;;;1.05;;
46777;SDS011;32536;47.128;8.746;2022-07-12T10:11:22;1.65;;;0.63;;
46777;SDS011;32536;47.128;8.746;2022-07-12T10:13:51;1.85;;;0.82;;
46777;SDS011;32536;47.128;8.746;2022-07-12T10:16:26;1.75;;;0.70;;
46777;SDS011;32536;47.128;8.746;2022-07-12T10:22:02;3.30;;;0.90;;
46777;SDS011;32536;47.128;8.746;2022-07-12T10:29:41;2.60;;;1.15;;
46777;SDS011;32536;47.128;8.746;2022-07-12T10:35:13;1.42;;;0.77;;
46777;SDS011;32536;47.128;8.746;2022-07-12T10:40:38;1.38;;;0.60;;
46777;SDS011;32536;47.128;8.746;2022-07-12T10:45:34;1.35;;;0.70;;
46777;SDS011;32536;47.128;8.746;2022-07-12T10:56:07;2.63;;;1.00;;
46777;SDS011;32536;47.128;8.746;2022-07-12T10:58:53;2.08;;;1.02;;
46777;SDS011;32536;47.128;8.746;2022-07-12T11:01:23;3.00;;;1.05;;
46777;SDS011;32536;47.128;8.746;2022-07-12T11:03:56;2.83;;;0.95;;
46777;SDS011;32536;47.128;8.746;2022-07-12T11:06:33;2.08;;;0.90;;
46777;SDS011;32536;47.128;8.746;2022-07-12T11:09:06;1.17;;;0.52;;
46777;SDS011;32536;47.128;8.746;2022-07-12T11:11:45;1.42;;;0.90;;
46777;SDS011;32536;47.128;8.746;2022-07-12T11:14:24;1.58;;;0.75;;
46777;SDS011;32536;47.128;8.746;2022-07-12T11:16:57;1.45;;;0.60;;
46777;SDS011;32536;47.128;8.746;2022-07-12T11:19:26;1.55;;;0.75;;
46777;SDS011;32536;47.128;8.746;2022-07-12T11:21:56;0.80;;;0.45;;
46777;SDS011;32536;47.128;8.746;2022-07-12T11:24:24;1.77;;;0.70;;
46777;SDS011;32536;47.128;8.746;2022-07-12T11:26:56;1.27;;;0.50;;
46777;SDS011;32536;47.128;8.746;2022-07-12T11:29:25;1.23;;;0.63;;
46777;SDS011;32536;47.128;8.746;2022-07-12T11:32:02;1.63;;;0.70;;
46777;SDS011;32536;47.128;8.746;2022-07-12T11:34:33;0.90;;;0.50;;
46777;SDS011;32536;47.128;8.746;2022-07-12T11:37:01;1.13;;;0.52;;
46777;SDS011;32536;47.128;8.746;2022-07-12T11:39:37;1.20;;;0.60;;
46777;SDS011;32536;47.128;8.746;2022-07-12T11:42:06;2.97;;;0.47;;
46777;SDS011;32536;47.128;8.746;2022-07-12T11:44:41;1.60;;;0.88;;
46777;SDS011;32536;47.128;8.746;2022-07-12T11:47:17;1.77;;;0.65;;
46777;SDS011;32536;47.128;8.746;2022-07-12T11:49:47;1.35;;;0.77;;
46777;SDS011;32536;47.128;8.746;2022-07-12T11:52:20;1.63;;;0.63;;
46777;SDS011;32536;47.128;8.746;2022-07-12T11:54:49;1.42;;;0.70;;
46777;SDS011;32536;47.128;8.746;2022-07-12T11:57:20;1.80;;;0.88;;
46777;SDS011;32536;47.128;8.746;2022-07-12T11:59:49;1.50;;;0.70;;
46777;SDS011;32536;47.128;8.746;2022-07-12T12:02:16;1.85;;;0.70;;
46777;SDS011;32536;47.128;8.746;2022-07-12T12:04:50;1.60;;;0.68;;
46777;SDS011;32536;47.128;8.746;2022-07-12T12:07:19;1.30;;;0.70;;
46777;SDS011;32536;47.128;8.746;2022-07-12T12:15:22;2.00;;;0.60;;
46777;SDS011;32536;47.128;8.746;2022-07-12T12:20:29;1.02;;;0.32;;
46777;SDS011;32536;47.128;8.746;2022-07-12T12:23:04;1.30;;;0.50;;
46777;SDS011;32536;47.128;8.746;2022-07-12T12:25:42;1.48;;;0.73;;
46777;SDS011;32536;47.128;8.746;2022-07-12T12:28:11;2.35;;;0.75;;
46777;SDS011;32536;47.128;8.746;2022-07-12T12:30:51;1.17;;;0.73;;
46777;SDS011;32536;47.128;8.746;2022-07-12T12:36:26;2.90;;;1.90;;
46777;SDS011;32536;47.128;8.746;2022-07-12T12:39:02;1.70;;;0.70;;
46777;SDS011;32536;47.128;8.746;2022-07-12T12:41:37;1.85;;;0.85;;
46777;SDS011;32536;47.128;8.746;2022-07-12T12:44:06;1.40;;;1.08;;
46777;SDS011;32536;47.128;8.746;2022-07-12T12:46:44;1.08;;;0.70;;
46777;SDS011;32536;47.128;8.746;2022-07-12T12:49:43;1.00;;;0.52;;
46777;SDS011;32536;47.128;8.746;2022-07-12T12:52:10;1.27;;;0.50;;
46777;SDS011;32536;47.128;8.746;2022-07-12T12:54:38;1.73;;;1.17;;
46777;SDS011;32536;47.128;8.746;2022-07-12T12:57:05;1.45;;;0.98;;
46777;SDS011;32536;47.128;8.746;2022-07-12T12:59:34;1.77;;;1.55;;
46777;SDS011;32536;47.128;8.746;2022-07-12T13:02:02;1.00;;;0.50;;
46777;SDS011;32536;47.128;8.746;2022-07-12T13:04:31;1.45;;;1.15;;
46777;SDS011;32536;47.128;8.746;2022-07-12T13:06:59;1.42;;;0.60;;
46777;SDS011;32536;47.128;8.746;2022-07-12T13:09:26;1.58;;;1.08;;
46777;SDS011;32536;47.128;8.746;2022-07-12T13:11:55;0.73;;;0.47;;
46777;SDS011;32536;47.128;8.746;2022-07-12T13:14:22;1.30;;;0.47;;
46777;SDS011;32536;47.128;8.746;2022-07-12T13:16:48;1.27;;;0.52;;
46777;SDS011;32536;47.128;8.746;2022-07-12T13:19:15;1.05;;;0.40;;
46777;SDS011;32536;47.128;8.746;2022-07-12T13:21:42;1.92;;;1.27;;
46777;SDS011;32536;47.128;8.746;2022-07-12T13:24:09;1.88;;;1.17;;
46777;SDS011;32536;47.128;8.746;2022-07-12T13:26:36;1.55;;;1.30;;
46777;SDS011;32536;47.128;8.746;2022-07-12T13:29:03;1.02;;;0.70;;
46777;SDS011;32536;47.128;8.746;2022-07-12T13:31:30;1.10;;;0.45;;
46777;SDS011;32536;47.128;8.746;2022-07-12T13:33:57;1.23;;;0.50;;
46777;SDS011;32536;47.128;8.746;2022-07-12T13:36:23;1.73;;;1.25;;
46777;SDS011;32536;47.128;8.746;2022-07-12T13:38:50;1.40;;;0.80;;
46777;SDS011;32536;47.128;8.746;2022-07-12T13:41:17;2.00;;;1.25;;
46777;SDS011;32536;47.128;8.746;2022-07-12T13:43:44;1.83;;;1.38;;
46777;SDS011;32536;47.128;8.746;2022-07-12T13:46:10;1.88;;;1.13;;
46777;SDS011;32536;47.128;8.746;2022-07-12T13:48:38;1.10;;;0.57;;
46777;SDS011;32536;47.128;8.746;2022-07-12T13:51:05;1.02;;;0.60;;
46777;SDS011;32536;47.128;8.746;2022-07-12T13:53:31;1.33;;;0.68;;
46777;SDS011;32536;47.128;8.746;2022-07-12T13:55:58;2.25;;;1.08;;
46777;SDS011;32536;47.128;8.746;2022-07-12T13:58:25;1.20;;;0.52;;
46777;SDS011;32536;47.128;8.746;2022-07-12T14:00:52;1.30;;;0.40;;
46777;SDS011;32536;47.128;8.746;2022-07-12T14:03:20;2.13;;;1.50;;
46777;SDS011;32536;47.128;8.746;2022-07-12T14:05:47;1.13;;;0.35;;
46777;SDS011;32536;47.128;8.746;2022-07-12T14:08:13;1.48;;;0.80;;
46777;SDS011;32536;47.128;8.746;2022-07-12T14:10:40;1.73;;;1.25;;
46777;SDS011;32536;47.128;8.746;2022-07-12T14:13:07;1.63;;;0.93;;
46777;SDS011;32536;47.128;8.746;2022-07-12T14:15:33;1.75;;;1.15;;
46777;SDS011;32536;47.128;8.746;2022-07-12T14:18:04;1.27;;;0.50;;
46777;SDS011;32536;47.128;8.746;2022-07-12T14:20:33;1.33;;;0.50;;
46777;SDS011;32536;47.128;8.746;2022-07-12T14:23:03;1.10;;;0.47;;
46777;SDS011;32536;47.128;8.746;2022-07-12T14:25:34;1.85;;;0.38;;
46777;SDS011;32536;47.128;8.746;2022-07-12T14:28:00;1.23;;;1.00;;
46777;SDS011;32536;47.128;8.746;2022-07-12T14:30:33;1.50;;;0.88;;
46777;SDS011;32536;47.128;8.746;2022-07-12T14:33:00;1.25;;;0.52;;
46777;SDS011;32536;47.128;8.746;2022-07-12T14:35:27;1.13;;;0.57;;
46777;SDS011;32536;47.128;8.746;2022-07-12T14:37:54;1.08;;;0.47;;
46777;SDS011;32536;47.128;8.746;2022-07-12T14:40:20;1.40;;;1.02;;
46777;SDS011;32536;47.128;8.746;2022-07-12T14:42:47;1.67;;;1.13;;
46777;SDS011;32536;47.128;8.746;2022-07-12T14:45:14;1.83;;;1.13;;
46777;SDS011;32536;47.128;8.746;2022-07-12T14:47:41;1.17;;;0.60;;
46777;SDS011;32536;47.128;8.746;2022-07-12T14:50:07;1.13;;;0.52;;
46777;SDS011;32536;47.128;8.746;2022-07-12T14:52:34;0.85;;;0.38;;
46777;SDS011;32536;47.128;8.746;2022-07-12T14:55:01;1.88;;;1.17;;
46777;SDS011;32536;47.128;8.746;2022-07-12T14:57:29;1.15;;;0.88;;
46777;SDS011;32536;47.128;8.746;2022-07-12T14:59:55;1.17;;;0.57;;
46777;SDS011;32536;47.128;8.746;2022-07-12T15:02:22;1.55;;;1.08;;
46777;SDS011;32536;47.128;8.746;2022-07-12T15:04:49;1.10;;;0.43;;
46777;SDS011;32536;47.128;8.746;2022-07-12T15:07:16;1.63;;;1.15;;
46777;SDS011;32536;47.128;8.746;2022-07-12T15:09:44;1.33;;;0.85;;
46777;SDS011;32536;47.128;8.746;2022-07-12T15:12:11;1.50;;;0.70;;
46777;SDS011;32536;47.128;8.746;2022-07-12T15:14:38;1.08;;;0.57;;
46777;SDS011;32536;47.128;8.746;2022-07-12T15:17:05;1.13;;;0.70;;
46777;SDS011;32536;47.128;8.746;2022-07-12T15:19:32;2.13;;;1.30;;
46777;SDS011;32536;47.128;8.746;2022-07-12T15:21:59;1.77;;;1.38;;
46777;SDS011;32536;47.128;8.746;2022-07-12T15:24:26;1.52;;;1.10;;
46777;SDS011;32536;47.128;8.746;2022-07-12T15:26:53;1.30;;;0.65;;
46777;SDS011;32536;47.128;8.746;2022-07-12T15:29:21;1.60;;;1.08;;
46777;SDS011;32536;47.128;8.746;2022-07-12T15:31:48;1.58;;;1.00;;
46777;SDS011;32536;47.128;8.746;2022-07-12T15:34:16;1.27;;;0.80;;
46777;SDS011;32536;47.128;8.746;2022-07-12T15:36:43;1.45;;;1.02;;
46777;SDS011;32536;47.128;8.746;2022-07-12T15:39:10;1.73;;;1.50;;
46777;SDS011;32536;47.128;8.746;2022-07-12T15:41:37;1.10;;;0.70;;
46777;SDS011;32536;47.128;8.746;2022-07-12T15:44:04;1.63;;;1.30;;
46777;SDS011;32536;47.128;8.746;2022-07-12T15:46:31;1.15;;;0.55;;